TimeMST,TemperatureF,Dew PointF,Humidity,Sea Level PressureIn,VisibilityMPH,Wind Direction,Wind SpeedMPH,Gust SpeedMPH,PrecipitationIn,Events,Conditions,WindDirDegrees,DateUTC
12:53 AM,73.9,45.0,35,29.89,10.0,SSE,6.9,-,N/A,,Clear,160,2012-09-24 07:53:00
1:53 AM,73.9,45.0,35,29.90,10.0,ESE,6.9,-,N/A,,Clear,110,2012-09-24 08:53:00
2:53 AM,73.0,44.1,35,29.88,10.0,SE,8.1,-,N/A,,Clear,140,2012-09-24 09:53:00
3:53 AM,72.0,44.1,37,29.88,10.0,SE,8.1,-,N/A,,Clear,140,2012-09-24 10:53:00
4:53 AM,70.0,44.1,39,29.89,10.0,SSE,5.8,-,N/A,,Clear,150,2012-09-24 11:53:00
5:53 AM,69.1,44.1,40,29.92,10.0,SSE,4.6,-,N/A,,Clear,160,2012-09-24 12:53:00
6:53 AM,70.0,45.0,41,29.93,10.0,SE,9.2,-,N/A,,Clear,140,2012-09-24 13:53:00
7:53 AM,75.0,46.0,36,29.94,10.0,SSE,8.1,-,N/A,,Clear,160,2012-09-24 14:53:00
8:53 AM,81.0,48.0,31,29.95,10.0,South,4.6,-,N/A,,Clear,190,2012-09-24 15:53:00
9:53 AM,87.1,48.0,26,29.94,10.0,Calm,Calm,-,N/A,,Clear,0,2012-09-24 16:53:00
10:53 AM,90.0,44.1,20,29.91,10.0,Calm,Calm,-,N/A,,Clear,0,2012-09-24 17:53:00
11:53 AM,93.9,41.0,16,29.88,10.0,Variable,3.5,-,N/A,,Clear,0,2012-09-24 18:53:00
12:53 PM,95.0,37.9,14,29.86,10.0,NW,5.8,-,N/A,,Clear,310,2012-09-24 19:53:00
1:53 PM,96.1,37.9,13,29.83,10.0,NW,8.1,-,N/A,,Clear,310,2012-09-24 20:53:00
2:53 PM,97.0,39.0,13,29.81,10.0,NW,8.1,-,N/A,,Clear,310,2012-09-24 21:53:00
3:53 PM,95.0,36.0,13,29.79,10.0,WSW,8.1,18.4,N/A,,Clear,250,2012-09-24 22:53:00
4:53 PM,95.0,36.0,13,29.79,10.0,WNW,11.5,-,N/A,,Clear,290,2012-09-24 23:53:00
5:53 PM,93.0,37.0,14,29.79,10.0,WNW,9.2,-,N/A,,Clear,300,2012-09-25 00:53:00
6:53 PM,88.0,39.0,18,29.80,10.0,NW,3.5,-,N/A,,Clear,320,2012-09-25 01:53:00
7:53 PM,82.9,42.1,24,29.82,10.0,WSW,5.8,-,N/A,,Clear,250,2012-09-25 02:53:00
8:53 PM,81.0,41.0,24,29.83,10.0,West,3.5,-,N/A,,Clear,260,2012-09-25 03:53:00
9:53 PM,79.0,42.1,27,29.83,10.0,Calm,Calm,-,N/A,,Clear,0,2012-09-25 04:53:00
10:53 PM,80.1,42.1,26,29.83,10.0,Calm,Calm,-,N/A,,Partly Cloudy,0,2012-09-25 05:53:00
11:53 PM,78.1,42.1,28,29.82,10.0,SSE,4.6,-,N/A,,Scattered Clouds,160,2012-09-25 06:53:00